Time;durP1;ratioP1;P1;durP2;ratioP2;P2;SDS_P1;SDS_P2;PMS_P1;PMS_P2;Temp;Humidity;BMP_temperature;BMP_pressure;BME280_temperature;BME280_humidity;BME280_pressure;Samples;Min_cycle;Max_cycle;Signal;HPM_P1;HPM_P2
2020/12/26 00:00:50;;;;;;;14.26;10.58;;;2.70;99.90;;;7.64;88.02;102456.55;1770085;71;24458;-77
2020/12/26 00:03:09;;;;;;;12.30;9.75;;;2.70;99.90;;;7.67;87.72;102458.89;1770142;70;24463;-76
2020/12/26 00:05:27;;;;;;;11.60;8.85;;;2.80;99.90;;;7.62;88.23;102453.89;1742835;72;24539;-77
2020/12/26 00:07:45;;;;;;;11.57;8.42;;;2.80;99.90;;;7.70;88.70;102438.30;1776864;71;24453;-77
2020/12/26 00:10:08;;;;;;;15.77;8.46;;;2.90;99.90;;;7.75;88.79;102451.47;1767228;71;24410;-78
2020/12/26 00:12:30;;;;;;;12.40;7.93;;;2.90;99.90;;;7.80;88.80;102443.91;1765632;71;24426;-76
2020/12/26 00:14:50;;;;;;;13.65;8.19;;;3.00;99.90;;;7.97;88.98;102438.69;1772360;71;24496;-77
2020/12/26 00:17:07;;;;;;;11.37;7.43;;;3.00;99.90;;;8.16;88.49;102443.01;1773140;70;24920;-78
2020/12/26 00:19:26;;;;;;;12.05;7.01;;;3.10;99.90;;;8.19;88.13;102441.45;1773936;71;24422;-76
2020/12/26 00:21:46;;;;;;;10.50;7.10;;;3.20;99.90;;;8.23;87.63;102446.02;1773485;71;24493;-81
2020/12/26 00:24:02;;;;;;;9.53;7.08;;;3.20;99.90;;;8.21;87.58;102448.91;1775327;71;24456;-77
2020/12/26 00:26:21;;;;;;;10.81;7.34;;;3.30;99.90;;;8.20;87.63;102443.64;1772617;71;24425;-76
2020/12/26 00:28:39;;;;;;;12.36;7.61;;;3.30;99.90;;;8.14;87.60;102441.64;1773795;71;24509;-78
2020/12/26 00:30:56;;;;;;;13.74;7.53;;;3.40;99.90;;;8.21;87.71;102445.41;1771002;71;24481;-76
2020/12/26 00:33:14;;;;;;;12.18;6.80;;;3.40;99.90;;;8.34;87.77;102438.70;1770238;71;24533;-79
2020/12/26 00:35:39;;;;;;;10.78;7.36;;;3.40;99.90;;;8.13;88.06;102446.77;1765342;71;24489;-78
2020/12/26 00:37:58;;;;;;;10.41;7.01;;;3.40;99.90;;;8.24;88.15;102445.17;1770420;71;24467;-78
2020/12/26 00:40:14;;;;;;;8.71;6.97;;;3.50;99.90;;;8.22;88.14;102432.50;1769684;71;25024;-78
2020/12/26 00:42:31;;;;;;;10.10;6.85;;;3.50;99.90;;;8.17;88.14;102435.72;1775663;71;24820;-76
2020/12/26 00:44:48;;;;;;;14.41;6.68;;;3.60;99.90;;;8.28;88.05;102431.94;1778985;71;24408;-81
2020/12/26 00:47:11;;;;;;;10.69;6.36;;;3.60;99.90;;;8.32;87.62;102429.95;1768049;71;24667;-78
2020/12/26 00:49:33;;;;;;;10.34;5.76;;;3.60;99.90;;;8.40;87.46;102428.19;1770251;70;24903;-79
2020/12/26 00:51:52;;;;;;;10.02;5.96;;;3.60;99.90;;;8.47;87.73;102420.26;1777846;71;24452;-77
2020/12/26 00:54:11;;;;;;;11.60;6.05;;;3.60;99.90;;;8.49;87.77;102422.09;1771394;71;24500;-78
2020/12/26 00:56:30;;;;;;;10.77;6.52;;;3.70;99.90;;;8.33;88.09;102430.45;1772188;71;24998;-79
2020/12/26 00:58:49;;;;;;;9.31;5.54;;;3.60;99.90;;;8.37;88.87;102435.84;1767101;70;24812;-77
2020/12/26 01:01:07;;;;;;;9.62;6.01;;;3.70;99.90;;;8.47;87.81;102427.61;1771931;71;24876;-76
2020/12/26 01:03:40;;;;;;;11.09;5.92;;;3.70;99.90;;;8.51;88.14;102428.64;1731829;70;24474;-77
2020/12/26 01:05:58;;;;;;;9.39;5.50;;;3.70;99.90;;;8.46;88.24;102420.66;1755127;71;24623;-78
2020/12/26 01:08:16;;;;;;;11.92;5.18;;;3.70;99.90;;;8.44;88.34;102425.32;1771760;71;24460;-78
2020/12/26 01:10:36;;;;;;;8.33;5.33;;;3.70;99.90;;;8.47;88.22;102430.20;1765893;71;25374;-78
2020/12/26 01:12:55;;;;;;;8.61;5.74;;;3.70;99.90;;;8.51;87.77;102423.45;1771285;71;24389;-79
2020/12/26 01:15:16;;;;;;;8.42;6.14;;;3.80;99.90;;;8.64;87.53;102425.77;1767013;71;25013;-79
2020/12/26 01:17:36;;;;;;;9.40;5.89;;;3.80;99.90;;;8.58;88.09;102428.11;1769523;71;24524;-78
2020/12/26 01:19:56;;;;;;;7.95;5.40;;;3.80;99.90;;;8.61;87.71;102425.24;1773575;71;24488;-77
2020/12/26 01:22:17;;;;;;;9.99;6.00;;;3.80;99.90;;;8.55;87.92;102421.05;1770572;71;24461;-78
2020/12/26 01:24:35;;;;;;;11.43;6.32;;;3.90;99.90;;;8.51;88.01;102424.75;1765303;71;24457;-77
2020/12/26 01:26:52;;;;;;;10.65;5.94;;;3.90;99.90;;;8.67;87.48;102424.60;1782145;71;24419;-78
2020/12/26 01:29:11;;;;;;;9.36;5.49;;;3.90;99.90;;;8.69;87.66;102424.27;1780286;71;24467;-80
2020/12/26 01:31:28;;;;;;;9.46;5.76;;;3.90;99.90;;;8.65;87.04;102422.34;1767857;71;24416;-78
2020/12/26 01:33:50;;;;;;;9.29;5.52;;;3.90;99.90;;;8.74;86.43;102420.16;1783690;71;24475;-77
2020/12/26 01:36:07;;;;;;;8.21;5.15;;;3.90;99.90;;;8.71;86.06;102423.50;1768897;71;24509;-78
2020/12/26 01:38:26;;;;;;;12.45;5.86;;;4.00;99.90;;;8.77;85.80;102425.48;1777230;71;24641;-77
2020/12/26 01:40:50;;;;;;;8.70;5.45;;;4.00;99.90;;;8.66;87.43;102418.95;1760745;71;24466;-77
2020/12/26 01:43:08;;;;;;;8.47;5.20;;;4.10;99.90;;;8.78;86.83;102416.86;1774970;71;24441;-79
2020/12/26 01:45:27;;;;;;;11.63;5.17;;;4.10;99.90;;;8.82;85.65;102404.50;1740843;72;24458;-77
2020/12/26 01:47:50;;;;;;;8.56;5.31;;;4.10;99.90;;;8.85;85.44;102415.02;1771303;71;24931;-78
2020/12/26 01:50:14;;;;;;;9.78;5.40;;;4.10;99.90;;;8.90;84.86;102406.98;1777399;71;24401;-78
2020/12/26 01:52:32;;;;;;;8.33;5.49;;;4.10;99.90;;;9.00;84.61;102416.55;1767457;71;25073;-80
2020/12/26 01:54:50;;;;;;;8.94;5.01;;;4.10;99.90;;;8.99;84.45;102417.78;1742961;72;25054;-77
2020/12/26 01:57:11;;;;;;;10.20;5.38;;;4.10;99.90;;;8.87;85.81;102423.34;1772423;71;24543;-80
2020/12/26 01:59:28;;;;;;;9.73;5.19;;;4.20;99.90;;;8.88;84.47;102416.00;1768949;71;25251;-78
2020/12/26 02:01:51;;;;;;;8.30;5.35;;;4.20;99.90;;;8.88;84.19;102420.34;1771933;72;24401;-78
2020/12/26 02:04:11;;;;;;;13.48;5.64;;;4.20;99.90;;;8.81;84.65;102423.08;1767947;71;24474;-78
2020/12/26 02:06:30;;;;;;;12.21;5.54;;;4.20;99.90;;;8.81;84.73;102417.89;1775542;71;24446;-78
2020/12/26 02:08:48;;;;;;;6.62;5.59;;;4.20;99.90;;;8.64;84.64;102427.06;1781874;71;24457;-76
2020/12/26 02:11:07;;;;;;;9.11;5.84;;;4.10;99.90;;;8.69;85.34;102426.43;1766302;71;25057;-77
2020/12/26 02:13:29;;;;;;;8.80;6.15;;;4.10;99.90;;;8.62;85.53;102428.70;1763996;71;25031;-78
2020/12/26 02:16:05;;;;;;;8.38;5.13;;;4.10;99.90;;;8.58;85.50;102433.30;1772621;71;24410;-79
2020/12/26 02:18:22;;;;;;;11.83;6.77;;;4.10;99.90;;;8.36;86.23;102439.23;1763783;71;24446;-78
2020/12/26 02:20:41;;;;;;;10.02;6.81;;;4.00;99.90;;;8.49;86.55;102430.28;1766246;71;24477;-77
2020/12/26 02:23:06;;;;;;;9.63;6.13;;;4.00;99.90;;;8.52;86.16;102430.44;1767894;71;24495;-77
2020/12/26 02:25:25;;;;;;;10.51;7.04;;;4.00;99.90;;;8.48;85.99;102426.81;1762437;71;24456;-78
2020/12/26 02:27:45;;;;;;;9.64;6.50;;;3.90;99.90;;;8.53;85.94;102432.20;1757905;70;24552;-78
2020/12/26 02:30:05;;;;;;;10.50;6.64;;;3.90;99.90;;;8.56;86.05;102426.75;1765439;71;24568;-79
2020/12/26 02:32:22;;;;;;;9.67;6.49;;;3.90;99.90;;;8.46;86.39;102423.66;1788222;71;25149;-78
2020/12/26 02:34:41;;;;;;;11.38;7.06;;;4.00;99.90;;;8.51;86.30;102416.56;1772887;71;24449;-78
2020/12/26 02:36:57;;;;;;;10.73;7.01;;;4.00;99.90;;;8.53;86.39;102410.14;1778707;71;24937;-77
2020/12/26 02:39:16;;;;;;;9.69;6.82;;;3.90;99.90;;;8.67;86.57;102406.42;1779644;70;24870;-77
2020/12/26 02:41:38;;;;;;;9.11;6.89;;;3.90;99.90;;;8.64;86.05;102414.09;1768914;71;24435;-78
2020/12/26 02:43:56;;;;;;;9.96;6.91;;;3.90;99.90;;;8.72;86.27;102398.43;1769179;71;24511;-77
2020/12/26 02:46:16;;;;;;;11.37;6.88;;;4.00;99.90;;;8.80;85.64;102400.94;1778154;71;24440;-78
2020/12/26 02:48:37;;;;;;;8.58;6.62;;;4.00;99.90;;;8.77;86.15;102398.22;1763524;71;24536;-77
2020/12/26 02:50:55;;;;;;;9.90;6.50;;;4.00;99.90;;;8.77;85.94;102390.42;1769836;71;24448;-77
2020/12/26 02:53:13;;;;;;;9.06;5.65;;;4.10;99.90;;;8.87;85.87;102395.16;1771065;71;24936;-77
2020/12/26 02:55:30;;;;;;;7.72;5.60;;;4.10;99.90;;;8.64;86.26;102384.23;1770963;71;24480;-77
2020/12/26 02:57:50;;;;;;;8.14;5.90;;;4.10;99.90;;;8.61;87.27;102384.10;1767802;71;24914;-78
2020/12/26 03:00:07;;;;;;;7.34;5.57;;;4.10;99.90;;;8.88;86.81;102383.97;1761508;71;24405;-77
2020/12/26 03:02:27;;;;;;;6.89;5.03;;;4.10;99.90;;;8.80;86.51;102378.43;1774177;71;24460;-77
2020/12/26 03:04:47;;;;;;;7.60;5.28;;;4.10;99.90;;;8.82;85.92;102379.83;1768683;71;24915;-78
2020/12/26 03:07:09;;;;;;;8.61;5.09;;;4.10;99.90;;;8.74;86.32;102370.82;1775094;71;24834;-78
2020/12/26 03:09:30;;;;;;;9.04;4.88;;;4.10;99.90;;;8.92;86.50;102367.67;1769118;71;24414;-77
2020/12/26 03:11:46;;;;;;;6.85;4.89;;;4.20;99.90;;;9.00;86.33;102367.58;1769581;71;24414;-77
2020/12/26 03:14:04;;;;;;;6.89;4.56;;;4.20;99.90;;;8.84;86.41;102353.48;1780041;70;24436;-77
2020/12/26 03:16:23;;;;;;;5.44;4.16;;;4.20;99.90;;;8.86;86.54;102356.63;1769383;71;24499;-78
2020/12/26 03:18:44;;;;;;;5.64;4.20;;;4.10;99.90;;;8.78;86.87;102342.84;1775216;71;24678;-77
2020/12/26 03:21:01;;;;;;;7.63;4.28;;;4.20;99.90;;;8.91;87.09;102336.04;1769024;71;24864;-79
2020/12/26 03:23:18;;;;;;;6.20;4.00;;;4.20;99.90;;;8.78;86.55;102332.05;1781450;71;24907;-76
2020/12/26 03:25:42;;;;;;;6.22;3.76;;;4.20;99.90;;;8.81;86.60;102329.98;1767527;70;24425;-78
2020/12/26 03:28:00;;;;;;;7.08;4.31;;;4.20;99.90;;;8.86;86.80;102331.06;1773160;71;24425;-77
2020/12/26 03:30:17;;;;;;;6.60;4.15;;;4.20;99.90;;;8.78;86.39;102333.35;1774285;71;24406;-77
2020/12/26 03:32:34;;;;;;;6.69;4.26;;;4.10;99.90;;;8.76;86.59;102321.11;1770731;71;24499;-78
2020/12/26 03:34:54;;;;;;;6.64;3.99;;;4.10;99.90;;;8.65;86.70;102332.76;1779542;71;24483;-78
2020/12/26 03:37:11;;;;;;;6.06;4.36;;;4.10;99.90;;;8.55;86.56;102331.48;1771634;72;24465;-77
2020/12/26 03:39:28;;;;;;;7.04;4.58;;;4.00;99.90;;;8.58;86.86;102323.82;1777516;71;24455;-78
2020/12/26 03:41:44;;;;;;;4.65;3.79;;;4.00;99.90;;;8.50;87.11;102319.16;1773221;71;24504;-77
2020/12/26 03:44:03;;;;;;;7.95;5.46;;;3.90;99.90;;;8.25;86.99;102326.72;1776849;71;24928;-77
2020/12/26 03:46:20;;;;;;;9.94;5.21;;;3.80;99.90;;;8.28;87.16;102312.57;1777577;71;24897;-78
2020/12/26 03:48:40;;;;;;;8.09;4.90;;;3.80;99.90;;;8.17;87.14;102305.56;1787056;70;24407;-77
2020/12/26 03:51:02;;;;;;;10.33;5.31;;;3.70;99.90;;;8.08;87.40;102296.09;1769241;72;24882;-78
2020/12/26 03:53:18;;;;;;;10.10;6.43;;;3.70;99.90;;;8.00;87.82;102293.58;1769001;71;24926;-75
2020/12/26 03:55:37;;;;;;;9.87;6.68;;;3.60;99.90;;;8.20;88.72;102283.67;1775469;71;24429;-77
2020/12/26 03:57:59;;;;;;;9.56;6.26;;;3.50;99.90;;;8.08;88.41;102277.94;1776223;70;24430;-77
2020/12/26 04:00:19;;;;;;;9.13;7.07;;;3.50;99.90;;;8.06;88.19;102274.81;1782344;71;24480;-78
2020/12/26 04:02:40;;;;;;;8.34;5.34;;;3.50;99.90;;;8.17;89.46;102273.57;1750192;72;24676;-77
2020/12/26 04:04:57;;;;;;;8.05;6.00;;;3.50;99.90;;;7.96;88.64;102276.52;1767460;72;24417;-77
2020/12/26 04:07:15;;;;;;;8.77;6.85;;;3.40;99.90;;;8.04;87.87;102283.83;1771322;70;24977;-77
2020/12/26 04:09:33;;;;;;;8.35;5.85;;;3.40;99.90;;;8.01;89.35;102291.88;1770693;71;24519;-79
2020/12/26 04:11:49;;;;;;;10.15;6.35;;;3.40;99.90;;;7.91;88.54;102287.09;1769543;71;24487;-77
2020/12/26 04:14:09;;;;;;;9.06;6.06;;;3.40;99.90;;;7.98;88.76;102284.86;1750669;72;24519;-77
2020/12/26 04:16:28;;;;;;;8.55;5.55;;;3.30;99.90;;;7.86;88.51;102283.41;1769678;70;24438;-76
2020/12/26 04:18:47;;;;;;;8.60;5.98;;;3.30;99.90;;;7.77;88.31;102284.30;1770761;71;24915;-76
2020/12/26 04:21:05;;;;;;;9.88;6.73;;;3.30;99.90;;;7.82;88.60;102273.73;1771457;71;24412;-76
2020/12/26 04:23:23;;;;;;;8.40;5.74;;;3.30;99.90;;;7.92;89.13;102270.30;1753078;71;24549;-77
2020/12/26 04:25:40;;;;;;;8.79;6.73;;;3.30;99.90;;;7.77;88.43;102267.45;1772373;71;24521;-77
2020/12/26 04:30:29;;;;;;;7.20;5.30;;;3.20;99.90;;;7.90;89.13;102267.18;1729859;72;25226;-78
2020/12/26 04:32:48;;;;;;;9.03;6.83;;;3.20;99.90;;;7.82;89.45;102265.95;1699047;75;24450;-78
2020/12/26 04:35:09;;;;;;;7.16;6.32;;;3.20;99.90;;;7.77;89.50;102270.05;1703252;75;24452;-77
2020/12/26 04:37:28;;;;;;;10.31;6.52;;;3.20;99.90;;;7.86;89.70;102273.94;1703225;75;24484;-77
2020/12/26 04:40:20;;;;;;;8.79;6.86;;;3.20;99.90;;;7.78;89.64;102269.25;1709608;74;24436;-76
2020/12/26 04:42:36;;;;;;;8.68;5.82;;;3.20;99.90;;;7.91;89.13;102263.36;1706242;74;24579;-80
2020/12/26 04:44:55;;;;;;;9.53;6.90;;;3.10;99.90;;;7.83;88.78;102274.20;1687464;75;24495;-81
2020/12/26 04:47:15;;;;;;;9.80;6.78;;;3.10;99.90;;;7.82;89.24;102265.55;1702783;75;24442;-82
2020/12/26 04:49:37;;;;;;;10.56;7.47;;;3.10;99.90;;;7.81;88.93;102262.90;1698086;75;24507;-81
2020/12/26 04:52:04;;;;;;;12.57;6.20;;;3.10;99.90;;;7.91;89.26;102258.56;1707024;75;24442;-81
2020/12/26 04:54:27;;;;;;;11.24;7.23;;;3.20;99.90;;;7.76;89.76;102264.39;1708671;75;24430;-81
2020/12/26 04:56:45;;;;;;;10.72;6.92;;;3.20;99.90;;;7.86;90.50;102258.38;1695064;74;24440;-82
2020/12/26 04:59:05;;;;;;;10.61;5.95;;;3.20;99.90;;;7.86;90.44;102245.41;1710497;75;24885;-82
2020/12/26 05:01:26;;;;;;;9.58;6.42;;;3.20;99.90;;;7.63;89.87;102247.41;1707088;74;24931;-79
2020/12/26 05:03:44;;;;;;;8.34;5.89;;;3.20;99.90;;;7.71;90.01;102247.34;1709320;75;24538;-80
2020/12/26 05:06:08;;;;;;;7.67;6.02;;;3.20;99.90;;;7.64;89.96;102241.00;1702051;75;24442;-79
2020/12/26 05:08:24;;;;;;;9.46;6.01;;;3.20;99.90;;;7.69;90.31;102239.90;1706393;74;24437;-82
2020/12/26 05:10:43;;;;;;;9.29;6.59;;;3.20;99.90;;;7.58;90.12;102249.80;1703926;74;24492;-81
2020/12/26 05:13:00;;;;;;;9.69;7.20;;;3.20;99.90;;;7.66;90.61;102245.84;1717429;74;24452;-79
2020/12/26 05:15:17;;;;;;;8.47;6.74;;;3.20;99.90;;;7.69;90.67;102236.91;1713603;75;24559;-80
2020/12/26 05:17:33;;;;;;;8.90;6.99;;;3.20;99.90;;;7.63;90.51;102240.50;1709206;75;24521;-82
2020/12/26 05:19:53;;;;;;;10.40;8.14;;;3.20;99.90;;;7.61;90.53;102239.56;1698325;74;24476;-81
2020/12/26 05:22:11;;;;;;;14.53;8.83;;;3.20;99.90;;;7.65;91.13;102240.56;1709198;75;24461;-81
2020/12/26 05:24:29;;;;;;;10.77;8.41;;;3.10;99.90;;;7.69;90.89;102221.35;1713091;74;24916;-81
2020/12/26 05:26:54;;;;;;;10.51;6.93;;;3.10;99.90;;;7.52;90.33;102224.88;1716577;74;24473;-81
2020/12/26 05:29:15;;;;;;;11.07;8.39;;;3.10;99.90;;;7.41;90.60;102217.47;1693215;74;24443;-80
2020/12/26 05:31:54;;;;;;;10.63;8.30;;;3.00;99.90;;;7.37;90.88;102200.89;1699146;74;25002;-81
2020/12/26 05:34:12;;;;;;;9.93;7.03;;;3.00;99.90;;;7.51;91.28;102218.33;1704217;75;25195;-83
2020/12/26 05:36:32;;;;;;;9.09;7.63;;;3.00;99.90;;;7.46;91.03;102219.86;1713425;74;24446;-82
2020/12/26 05:38:53;;;;;;;12.87;9.90;;;3.00;99.90;;;7.35;91.20;102208.98;1714629;74;24469;-80
2020/12/26 05:41:12;;;;;;;13.30;9.78;;;3.00;99.90;;;7.52;91.49;102211.06;1703299;74;24502;-80
2020/12/26 05:43:32;;;;;;;14.30;10.00;;;3.00;99.90;;;7.54;91.40;102200.32;1709560;74;24459;-81
2020/12/26 05:45:50;;;;;;;13.11;10.05;;;3.00;99.90;;;7.57;91.72;102205.23;1711779;74;24930;-82
2020/12/26 05:48:12;;;;;;;12.86;8.20;;;3.00;99.90;;;7.70;91.42;102195.00;1703416;74;24437;-82
2020/12/26 05:50:28;;;;;;;16.99;10.76;;;2.90;99.90;;;7.33;91.20;102198.95;1708092;75;24489;-82
2020/12/26 05:52:55;;;;;;;10.60;8.62;;;2.90;99.90;;;7.66;91.75;102200.88;1716488;74;24583;-80
2020/12/26 05:55:21;;;;;;;11.59;10.05;;;3.00;99.90;;;7.63;91.46;102201.61;1697732;75;24495;-82
2020/12/26 05:57:40;;;;;;;12.31;8.12;;;3.00;99.90;;;7.78;91.51;102199.24;1710219;75;24477;-82
2020/12/26 05:59:57;;;;;;;13.75;9.83;;;3.10;99.90;;;7.61;91.20;102198.09;1704365;75;24985;-81
2020/12/26 06:02:30;;;;;;;11.58;8.32;;;3.10;99.90;;;7.71;91.43;102201.97;1710048;74;24417;-79
2020/12/26 06:04:58;;;;;;;9.27;6.10;;;3.10;99.90;;;7.45;92.04;102205.11;1710784;75;24433;-81
2020/12/26 06:07:17;;;;;;;11.38;8.65;;;3.10;99.90;;;7.58;92.48;102212.62;1699378;74;24433;-80
2020/12/26 06:09:35;;;;;;;11.81;9.95;;;3.20;99.90;;;7.80;92.09;102213.13;1703124;74;24501;-81
2020/12/26 06:11:54;;;;;;;12.68;10.09;;;3.20;99.90;;;7.87;92.08;102219.08;1705863;74;24706;-80
2020/12/26 06:14:13;;;;;;;10.82;9.61;;;3.30;99.90;;;7.92;91.86;102215.84;1706138;74;24440;-81
2020/12/26 06:16:32;;;;;;;10.02;8.49;;;3.40;99.90;;;7.79;91.96;102207.09;1708252;75;24457;-81
2020/12/26 06:18:53;;;;;;;15.49;10.16;;;3.40;99.90;;;7.55;92.55;102218.96;1704837;75;24449;-80
2020/12/26 06:21:11;;;;;;;14.35;11.08;;;3.40;99.90;;;7.87;92.90;102230.34;1709806;75;24452;-82
2020/12/26 06:23:41;;;;;;;11.15;8.62;;;3.40;99.90;;;7.95;92.18;102230.67;1703463;74;24499;-79
2020/12/26 06:25:57;;;;;;;12.76;10.24;;;3.40;99.90;;;7.90;91.85;102224.39;1700812;74;24449;-80
2020/12/26 06:28:27;;;;;;;13.05;10.24;;;3.40;99.90;;;7.83;92.60;102216.75;1712413;74;24961;-81
2020/12/26 06:30:44;;;;;;;12.14;9.95;;;3.40;99.90;;;7.81;92.69;102196.78;1715305;74;24511;-82
2020/12/26 06:33:01;;;;;;;10.32;8.99;;;3.40;99.90;;;7.67;92.71;102198.36;1710540;74;24589;-80
2020/12/26 06:35:24;;;;;;;12.49;8.49;;;3.40;99.90;;;7.61;92.63;102199.79;1710345;74;24524;-82
2020/12/26 06:37:40;;;;;;;15.10;10.33;;;3.30;99.90;;;7.66;92.62;102195.30;1714833;74;24450;-83
2020/12/26 06:39:57;;;;;;;11.81;9.48;;;3.30;99.90;;;7.68;91.95;102192.77;1711743;74;24965;-81
2020/12/26 06:42:23;;;;;;;14.53;11.18;;;3.20;99.90;;;7.58;91.84;102195.38;1717134;74;24921;-82
2020/12/26 06:44:41;;;;;;;14.23;10.84;;;3.20;99.90;;;7.63;91.75;102206.80;1709201;74;24467;-81
2020/12/26 06:47:02;;;;;;;12.78;10.33;;;3.20;99.90;;;7.70;91.14;102214.04;1716389;74;24440;-79
2020/12/26 06:49:28;;;;;;;13.65;9.82;;;3.10;99.90;;;7.64;91.46;102215.47;1715175;74;24553;-79
2020/12/26 06:51:48;;;;;;;9.94;8.28;;;3.10;99.90;;;7.60;91.36;102212.28;1702962;74;24456;-81
2020/12/26 06:54:07;;;;;;;15.82;10.34;;;3.10;99.90;;;7.61;92.24;102208.46;1710391;74;24434;-81
2020/12/26 06:59:19;;;;;;;11.75;8.79;;;3.20;99.90;;;7.84;91.82;102207.28;1736731;72;25243;-79
2020/12/26 07:01:36;;;;;;;13.09;11.37;;;3.20;99.90;;;7.60;92.17;102216.17;1685006;75;24570;-82
2020/12/26 07:04:17;;;;;;;13.70;10.64;;;3.30;99.90;;;7.81;92.20;102203.27;1687617;75;24554;-81
2020/12/26 07:06:43;;;;;;;13.06;10.67;;;3.30;99.90;;;7.76;92.19;102198.28;1682306;75;24508;-80
2020/12/26 07:09:02;;;;;;;11.29;9.98;;;3.30;99.90;;;7.87;91.49;102194.04;1688877;75;24454;-81
2020/12/26 07:11:26;;;;;;;13.56;11.47;;;3.30;99.90;;;7.77;91.90;102196.16;1691264;75;24442;-82
2020/12/26 07:16:48;;;;;;;10.88;9.79;;;3.40;99.90;;;7.93;91.92;102195.59;1745197;72;25222;-81
2020/12/26 07:19:43;;;;;;;16.52;10.94;;;3.40;99.90;;;7.72;91.99;102207.62;1718532;75;24437;-82
2020/12/26 07:22:05;;;;;;;11.98;9.65;;;3.40;99.90;;;7.87;91.93;102203.52;1721866;73;24492;-81
2020/12/26 07:24:31;;;;;;;16.80;11.57;;;3.40;99.90;;;7.85;91.88;102209.94;1718682;73;24877;-80
2020/12/26 07:26:48;;;;;;;15.04;10.63;;;3.40;99.90;;;7.95;91.07;102204.30;1725123;73;24433;-83
2020/12/26 07:29:06;;;;;;;10.52;8.20;;;3.40;99.90;;;7.92;91.30;102200.28;1722047;73;24897;-80
2020/12/26 07:31:22;;;;;;;12.30;9.79;;;3.40;99.90;;;7.74;91.78;102199.08;1728434;73;24440;-80
2020/12/26 07:33:41;;;;;;;13.48;10.07;;;3.50;99.90;;;7.88;91.58;102197.50;1717941;73;24565;-83
2020/12/26 07:36:00;;;;;;;10.22;8.77;;;3.40;99.90;;;7.93;91.67;102192.10;1719531;73;24959;-79
2020/12/26 07:38:18;;;;;;;12.14;9.64;;;3.40;99.90;;;7.83;91.42;102200.30;1723432;73;24622;-80
2020/12/26 07:40:37;;;;;;;12.25;9.69;;;3.50;99.90;;;7.84;91.79;102215.05;1722998;73;24417;-81
2020/12/26 07:43:03;;;;;;;13.71;8.60;;;3.50;99.90;;;7.85;91.32;102198.67;1718594;73;24844;-83
2020/12/26 07:45:24;;;;;;;12.95;9.38;;;3.40;99.90;;;7.79;91.09;102207.09;1718806;73;24497;-82
2020/12/26 07:47:44;;;;;;;9.51;8.34;;;3.40;99.90;;;7.84;91.20;102216.36;1719098;73;24460;-81
2020/12/26 07:50:05;;;;;;;13.35;9.06;;;3.40;99.90;;;7.90;91.07;102209.73;1720204;73;24428;-81
2020/12/26 07:52:23;;;;;;;12.23;9.30;;;3.40;99.90;;;7.94;91.09;102209.42;1718491;73;24434;-81
2020/12/26 07:54:40;;;;;;;10.89;7.96;;;3.50;99.90;;;8.15;90.86;102211.64;1722524;73;24474;-82
2020/12/26 07:56:59;;;;;;;9.44;7.10;;;3.50;99.90;;;7.98;90.80;102217.43;1718672;74;24479;-82
2020/12/26 07:59:20;;;;;;;10.94;8.85;;;3.50;99.90;;;7.82;91.75;102211.50;1725251;73;24476;-81
2020/12/26 08:01:38;;;;;;;10.95;8.02;;;3.50;99.90;;;8.21;91.55;102214.08;1727135;73;24448;-79
2020/12/26 08:04:04;;;;;;;9.59;8.17;;;3.60;99.90;;;8.15;90.87;102210.34;1725385;73;24402;-82
2020/12/26 08:06:23;;;;;;;8.75;7.61;;;3.60;99.90;;;8.18;90.93;102199.69;1725422;73;24468;-81
2020/12/26 08:08:41;;;;;;;8.54;5.98;;;3.60;99.90;;;8.10;90.90;102193.69;1717688;73;24865;-80
2020/12/26 08:11:01;;;;;;;9.63;7.53;;;3.70;99.90;;;8.07;91.19;102200.95;1732081;73;24975;-81
2020/12/26 08:13:19;;;;;;;8.37;6.56;;;3.70;99.90;;;8.13;90.86;102195.11;1728005;73;24504;-81
2020/12/26 08:15:38;;;;;;;9.56;7.27;;;3.70;99.90;;;8.03;91.20;102189.09;1728164;73;24448;-80
2020/12/26 08:18:01;;;;;;;10.30;6.50;;;3.70;99.90;;;8.16;91.46;102197.43;1725903;73;24477;-81
2020/12/26 08:20:22;;;;;;;10.38;6.57;;;3.70;99.90;;;8.00;90.86;102172.11;1731714;73;24431;-81
2020/12/26 08:22:43;;;;;;;9.82;7.70;;;3.70;99.90;;;8.07;90.80;102161.14;1726103;73;24442;-83
2020/12/26 08:27:45;;;;;;;9.61;6.62;;;3.80;99.90;;;8.26;91.44;102165.90;1745094;72;25699;-78
2020/12/26 08:30:06;;;;;;;8.01;5.42;;;3.80;99.90;;;8.05;91.28;102178.34;1718557;73;24441;-81
2020/12/26 08:32:28;;;;;;;7.45;6.31;;;3.80;99.90;;;8.16;90.68;102155.92;1719806;73;24451;-77
2020/12/26 08:34:49;;;;;;;8.44;5.75;;;3.80;99.90;;;8.22;90.12;102154.88;1721048;73;24446;-78
2020/12/26 08:37:30;;;;;;;7.77;6.18;;;3.90;99.90;;;8.02;90.88;102141.50;1721138;73;24872;-79
2020/12/26 08:39:54;;;;;;;8.54;5.60;;;3.90;99.90;;;8.11;91.35;102149.66;1718880;73;24435;-83
2020/12/26 08:42:21;;;;;;;5.67;4.79;;;3.90;99.90;;;8.20;90.32;102157.84;1692976;73;24931;-80
2020/12/26 08:44:37;;;;;;;8.75;5.48;;;3.90;99.90;;;8.07;90.96;102168.92;1720060;73;24483;-82
2020/12/26 08:46:54;;;;;;;9.67;6.34;;;3.90;99.90;;;8.17;90.81;102161.58;1724175;73;24512;-82
2020/12/26 08:49:12;;;;;;;8.60;5.98;;;3.90;99.90;;;8.43;89.28;102165.27;1717827;73;24457;-80
2020/12/26 08:51:30;;;;;;;6.83;5.29;;;4.00;99.90;;;8.39;89.33;102156.50;1724669;73;24461;-83
2020/12/26 08:53:52;;;;;;;6.80;5.89;;;4.00;99.90;;;8.26;90.39;102160.71;1718111;73;24916;-80
2020/12/26 08:56:09;;;;;;;7.93;6.20;;;4.10;99.90;;;8.38;89.98;102149.91;1719774;73;24517;-81
2020/12/26 08:58:31;;;;;;;8.62;6.40;;;4.10;99.90;;;8.56;89.38;102161.05;1718470;73;24438;-82
2020/12/26 09:00:49;;;;;;;6.69;5.22;;;4.10;99.90;;;8.51;88.79;102161.27;1722646;73;24476;-81
2020/12/26 09:03:06;;;;;;;8.21;4.96;;;4.10;99.90;;;8.49;89.33;102153.82;1720391;73;24488;-80
2020/12/26 09:05:33;;;;;;;8.08;5.85;;;4.20;99.90;;;8.55;89.54;102142.41;1717643;73;24590;-83
2020/12/26 09:08:07;;;;;;;6.56;5.52;;;4.20;99.90;;;8.53;89.87;102136.27;1727620;73;24519;-81
2020/12/26 09:10:23;;;;;;;7.78;5.49;;;4.20;99.90;;;8.58;88.41;102164.59;1723629;73;24423;-81
2020/12/26 09:12:45;;;;;;;8.44;5.43;;;4.20;99.90;;;8.41;88.65;102161.75;1720570;73;24500;-80
2020/12/26 09:15:04;;;;;;;8.20;5.10;;;4.20;99.90;;;8.47;88.58;102147.71;1716553;73;24426;-80
2020/12/26 09:17:26;;;;;;;6.19;3.97;;;4.20;99.90;;;8.30;88.47;102144.42;1721692;73;24444;-80
2020/12/26 09:19:47;;;;;;;12.69;5.39;;;4.20;99.90;;;8.25;89.00;102142.48;1726989;73;24446;-79
2020/12/26 09:22:14;;;;;;;7.15;4.60;;;4.20;99.90;;;8.45;87.93;102140.27;1720128;73;24495;-80
2020/12/26 09:24:32;;;;;;;5.75;4.74;;;4.20;99.90;;;8.41;88.02;102138.39;1724969;73;24992;-80
2020/12/26 09:26:50;;;;;;;8.34;5.49;;;4.20;99.90;;;8.46;87.97;102141.63;1720898;73;24605;-80
2020/12/26 09:29:12;;;;;;;7.67;5.40;;;4.20;99.90;;;8.53;87.74;102133.67;1723621;74;24495;-80
2020/12/26 09:31:31;;;;;;;7.30;5.16;;;4.20;99.90;;;8.55;87.26;102135.48;1711438;74;24513;-83
2020/12/26 09:33:50;;;;;;;5.79;4.72;;;4.30;99.90;;;8.54;86.57;102121.15;1714950;74;24582;-80
2020/12/26 09:36:13;;;;;;;5.82;5.06;;;4.30;99.90;;;8.51;87.53;102117.14;1722007;74;24541;-82
2020/12/26 09:38:32;;;;;;;8.05;5.05;;;4.30;99.90;;;8.69;87.51;102126.95;1715991;73;24447;-81
2020/12/26 09:40:48;;;;;;;6.58;4.50;;;4.40;99.90;;;8.77;86.66;102119.05;1718139;74;24446;-78
2020/12/26 09:43:06;;;;;;;6.16;4.09;;;4.40;99.90;;;8.70;86.85;102107.94;1714148;74;24470;-80
2020/12/26 09:45:24;;;;;;;6.38;4.14;;;4.50;99.90;;;8.40;88.35;102105.45;1715941;74;24445;-81
2020/12/26 09:47:40;;;;;;;7.70;4.45;;;4.50;99.90;;;8.57;87.65;102089.71;1720126;74;24597;-81
2020/12/26 09:49:56;;;;;;;8.74;5.24;;;4.50;99.90;;;8.65;87.60;102092.19;1714257;74;24629;-83
2020/12/26 09:52:13;;;;;;;6.17;4.70;;;4.60;99.90;;;8.71;86.58;102100.64;1718879;73;24920;-80
2020/12/26 09:54:34;;;;;;;8.81;4.66;;;4.60;99.90;;;8.93;85.68;102086.33;1717683;74;24436;-81
2020/12/26 09:56:50;;;;;;;5.90;3.83;;;4.80;99.90;;;8.94;86.17;102094.58;1722752;74;24424;-80
2020/12/26 09:59:07;;;;;;;6.45;4.06;;;5.00;99.90;;;8.84;86.65;102110.23;1719723;74;24468;-81
2020/12/26 10:01:25;;;;;;;5.73;4.22;;;5.20;99.90;;;8.93;87.06;102096.28;1723459;73;24490;-81
2020/12/26 10:03:42;;;;;;;5.68;3.93;;;5.30;99.90;;;8.99;87.12;102105.59;1719721;73;25124;-81